Latest Weather Observations for Sheffield

IDT60801

Issued at 3:41 pm EDT Wednesday 20 January 2021 (issued every 10 minutes, with the page automatically refreshed every 10 minutes)

About weather observations | Map of weather stations | Latest weather observations for TAS | Other Formats
Station Details ID: 091291 Name: SHEFFIELD SCHOOL FARM Lat: -41.39 Lon: 146.32 Height: 294.2 m
Data from the previous 72 hours. | See also: Recent months at Sheffield
Date/Time
EDT
Temp
°C
App
Temp
°C
Dew
Point
°C
Rel
Hum
%
Delta-T
°C
Wind Press
QNH
hPa
Press
MSL
hPa
Rain since
9am
mm
Dir  Spd
km/h
Gust
km/h
Spd
kts
Gust
kts
20/03:30pm 20.3 15.0 8.3 46 6.3 NNW 26 35 14 19 1020.2 1019.6 0.0
20/03:00pm 20.5 16.2 9.4 49 6.0 NNW 22 32 12 17 1020.6 1020.0 0.0
20/02:30pm 20.9 16.8 10.1 50 5.9 NNW 22 30 12 16 1020.8 1020.2 0.0
20/02:00pm 20.4 16.4 9.0 48 6.1 N 20 32 11 17 1021.2 1020.6 0.0
20/01:30pm 20.6 17.2 9.2 48 6.1 N 17 24 9 13 1021.7 1021.2 0.0
20/01:00pm 20.9 18.7 7.9 43 6.8 NNW 9 22 5 12 1022.0 1021.5 0.0
20/12:30pm 20.0 17.0 6.0 40 7.1 NNW 11 26 6 14 1022.4 1021.9 0.0
20/12:00pm 19.1 16.5 5.9 42 6.6 N 9 19 5 10 1023.0 1022.4 0.0
20/11:30am 19.0 17.2 7.8 48 5.8 N 7 15 4 8 1023.5 1022.9 0.0
20/11:00am 17.5 15.2 7.3 51 5.2 NNW 9 19 5 10 1023.9 1023.3 0.0
20/10:30am 16.4 14.6 8.1 58 4.3 N 7 13 4 7 1024.1 1023.5 0.0
20/10:00am 15.2 13.8 7.3 59 3.9 NW 4 7 2 4 1024.5 1024.0 0.0
20/09:30am 14.6 13.5 4.9 52 4.6 CALM 0 6 0 3 1024.7 1024.2 0.0
20/09:00am 14.4 12.4 2.3 44 5.4 SE 2 4 1 2 1024.6 1024.1 0.0
20/08:30am 11.3 9.1 3.3 58 3.6 WSW 4 4 2 2 1024.9 1024.4 0.0
20/08:00am 9.4 6.7 2.9 64 2.8 SW 6 6 3 3 1024.8 1024.3 0.0
20/07:30am 7.7 4.8 2.8 71 2.1 SW 7 9 4 5 1024.7 1024.2 0.0
20/07:00am 5.9 2.8 1.6 74 1.7 SW 7 9 4 5 1024.5 1024.0 0.0
20/06:30am 5.1 1.9 0.7 73 1.7 SW 7 9 4 5 1024.4 1023.9 0.0
20/06:00am 5.5 1.9 0.5 70 2.0 SSW 9 9 5 5 1024.3 1023.7 0.0
20/05:30am 5.5 2.3 0.5 70 2.0 SSW 7 9 4 5 1024.0 1023.4 0.0
20/05:00am 6.4 4.5 0.7 67 2.3 CALM 0 0 0 0 1023.9 1023.3 0.0
20/04:30am 5.8 3.2 1.2 72 1.9 SSE 4 6 2 3 1023.8 1023.2 0.0
20/04:00am 5.8 2.3 1.0 71 1.9 SSE 9 13 5 7 1023.8 1023.2 0.0
20/03:30am 6.5 3.9 1.0 68 2.2 SSE 4 6 2 3 1023.9 1023.3 0.0
20/03:00am 6.4 4.6 1.3 70 2.1 CALM 0 2 0 1 1024.0 1023.4 0.0
20/02:30am 5.6 2.3 2.3 79 1.4 S 9 11 5 6 1024.1 1023.5 0.0
20/02:00am 7.3 4.3 0.5 62 2.7 SSE 6 9 3 5 1024.0 1023.4 0.0
20/01:30am 7.5 4.5 0.9 63 2.7 ESE 6 7 3 4 1024.1 1023.5 0.0
20/01:00am 8.8 6.9 0.8 57 3.3 CALM 0 0 0 0 1023.9 1023.3 0.0
20/12:30am 9.1 7.4 1.8 60 3.1 CALM 0 4 0 2 1023.8 1023.2 0.0
20/12:00am 9.2 7.5 2.1 61 3.0 CALM 0 0 0 0 1023.6 1023.0 0.0
 
Date/Time
EDT
Temp
°C
App
Temp
°C
Dew
Point
°C
Rel
Hum
%
Delta-T
°C
Wind Press
QNH
hPa
Press
MSL
hPa
Rain since
9am
mm
Dir  Spd
km/h
Gust
km/h
Spd
kts
Gust
kts
19/11:30pm 10.3 7.8 1.7 55 3.7 W 4 6 2 3 1023.5 1022.9 0.0
19/11:00pm 9.6 7.9 2.0 59 3.2 CALM 0 4 0 2 1023.5 1022.9 0.0
19/10:30pm 10.5 8.1 2.1 56 3.6 SE 4 4 2 2 1023.3 1022.7 0.0
19/10:00pm 11.3 7.9 2.1 53 4.0 WSW 9 11 5 6 1023.1 1022.5 0.0
19/09:30pm 12.9 11.1 1.0 44 5.1 CALM 0 4 0 2 1022.5 1022.0 0.0
19/09:00pm 14.0 12.1 0.6 40 5.8 CALM 0 0 0 0 1022.1 1021.6 0.0
19/08:30pm 14.5 11.5 2.1 43 5.5 S 7 13 4 7 1021.9 1021.4 0.0
19/08:00pm 16.1 11.1 1.4 37 6.5 SW 17 24 9 13 1021.4 1020.8 0.0
19/07:30pm 17.2 13.0 1.6 35 7.1 SW 13 19 7 10 1021.0 1020.4 0.0
19/07:00pm 18.1 14.2 1.2 32 7.6 SSW 11 19 6 10 1020.7 1020.1 0.0
19/06:30pm 18.6 13.1 -1.8 25 8.7 S 17 24 9 13 1020.3 1019.7 0.0
19/06:00pm 19.0 13.7 -0.9 26 8.7 S 17 26 9 14 1020.1 1019.5 0.0
19/05:30pm 19.3 15.2 -0.1 27 8.6 S 11 19 6 10 1020.2 1019.6 0.0
19/05:00pm 19.5 15.0 0.0 27 8.7 SSW 13 19 7 10 1020.1 1019.5 0.0
19/04:30pm 19.0 14.2 0.1 28 8.4 S 15 28 8 15 1020.2 1019.6 0.0
19/04:00pm 18.9 14.1 0.0 28 8.4 SW 15 20 8 11 1020.2 1019.6 0.0
19/03:30pm 18.7 14.6 2.5 34 7.6 SW 13 24 7 13 1020.2 1019.6 0.0
19/03:00pm 18.3 14.0 1.3 32 7.7 SSW 13 22 7 12 1020.4 1019.8 0.0
19/02:30pm 18.1 14.0 2.0 34 7.4 SW 13 22 7 12 1020.4 1019.8 0.0
19/02:00pm 16.8 11.7 0.5 33 7.2 S 17 26 9 14 1020.6 1020.0 0.0
19/01:30pm 17.1 13.3 1.5 35 7.0 WSW 11 20 6 11 1020.7 1020.1 0.0
19/01:00pm 16.0 12.0 0.2 34 6.9 W 11 20 6 11 1021.0 1020.4 0.0
19/12:30pm 16.3 13.4 2.7 40 6.3 W 7 15 4 8 1021.1 1020.5 0.0
19/12:00pm 16.0 12.8 3.1 42 5.9 ESE 9 33 5 18 1020.7 1020.1 0.0
19/11:30am 14.7 10.1 1.6 41 5.8 SSE 15 32 8 17 1021.1 1020.5 0.0
19/11:00am 13.7 9.7 0.7 41 5.6 SW 11 22 6 12 1021.3 1020.7 0.0
19/10:30am 13.8 9.7 2.1 45 5.2 WSW 13 20 7 11 1021.1 1020.5 0.0
19/10:00am 13.1 8.9 1.5 45 5.0 SSE 13 22 7 12 1020.9 1020.3 0.0
19/09:30am 12.3 9.3 0.7 45 4.9 S 6 13 3 7 1020.7 1020.1 0.0
19/09:00am 11.3 8.1 0.7 48 4.4 SW 7 15 4 8 1020.4 1019.8 0.0
19/08:30am 10.5 7.1 1.6 54 3.8 SW 9 15 5 8 1020.0 1019.4 0.0
19/08:00am 9.2 5.7 1.4 58 3.3 W 9 13 5 7 1019.6 1019.0 0.0
19/07:30am 8.0 5.3 2.7 69 2.3 NW 6 9 3 5 1019.0 1018.5 0.0
19/07:00am 6.5 3.8 0.4 65 2.4 NW 4 6 2 3 1018.5 1018.0 0.0
19/06:30am 5.7 3.2 -0.8 63 2.5 NNW 2 6 1 3 1017.9 1017.3 0.0
19/06:00am 6.6 3.4 -0.8 59 2.9 SW 6 9 3 5 1017.2 1016.6 0.0
19/05:30am 6.3 2.9 -0.9 60 2.8 SSW 7 11 4 6 1016.8 1016.2 0.0
19/05:00am 6.0 2.6 -0.9 61 2.6 SW 7 9 4 5 1016.3 1015.7 0.0
19/04:30am 5.3 2.5 -0.7 65 2.3 SE 4 6 2 3 1015.9 1015.3 0.0
19/04:00am 4.6 1.4 -0.8 68 2.0 SSW 6 7 3 4 1015.6 1015.0 0.0
19/03:30am 5.4 2.0 -0.4 66 2.2 NW 7 11 4 6 1015.3 1014.7 0.0
19/03:00am 6.7 2.6 -0.3 61 2.7 W 11 17 6 9 1014.9 1014.3 0.0
19/02:30am 7.5 4.3 -0.7 56 3.2 SW 6 9 3 5 1014.6 1014.0 0.0
19/02:00am 7.4 3.3 -0.5 57 3.1 WSW 11 19 6 10 1014.1 1013.5 0.0
19/01:30am 7.3 4.0 -1.1 55 3.3 SSW 6 13 3 7 1014.0 1013.4 0.0
19/01:00am 8.1 4.8 -1.1 52 3.6 WNW 6 9 3 5 1013.6 1013.0 0.0
19/12:30am 8.8 3.8 -1.3 49 4.0 S 15 32 8 17 1013.0 1012.4 0.0
19/12:00am 8.9 3.5 -1.2 49 4.0 S 17 26 9 14 1012.5 1011.8 0.0
 
Date/Time
EDT
Temp
°C
App
Temp
°C
Dew
Point
°C
Rel
Hum
%
Delta-T
°C
Wind Press
QNH
hPa
Press
MSL
hPa
Rain since
9am
mm
Dir  Spd
km/h
Gust
km/h
Spd
kts
Gust
kts
18/11:30pm 8.9 4.7 -1.2 49 4.0 SSW 11 17 6 9 1012.1 1011.4 0.0
18/11:00pm 10.2 2.3 -1.2 45 4.5 SSW 30 54 16 29 1011.6 1011.0 0.0
18/10:30pm 10.9 2.8 -0.5 45 4.7 SW 32 57 17 31 1010.7 1010.1 0.0
18/10:23pm 11.1 3.8 -0.1 46 4.6 SW 28 46 15 25 1010.6 1010.0 0.0
18/10:00pm 11.0 4.9 0.7 49 4.3 SSW 22 37 12 20 1010.5 1009.9 0.0
18/09:30pm 11.8 4.2 0.3 45 4.8 SW 30 48 16 26 1009.4 1008.7 0.0
18/09:00pm 11.7 3.1 0.2 45 4.8 SW 35 61 19 33 1008.8 1008.1 0.0
18/08:44pm 11.9 5.7 -0.3 43 5.1 SW 22 52 12 28 1008.7 1008.0 0.0
18/08:30pm 12.1 8.3 -0.7 41 5.3 SW 9 17 5 9 1008.5 1007.8 0.0
18/08:00pm 13.6 5.9 -0.4 38 5.9 WSW 30 54 16 29 1007.6 1007.0 0.0
18/07:30pm 14.6 6.9 2.2 43 5.6 WSW 32 52 17 28 1007.3 1006.7 0.0
18/07:28pm 14.7 7.8 2.3 43 5.6 WSW 28 52 15 28 1007.2 1006.6 0.0
18/07:00pm 15.1 8.9 4.5 49 5.0 W 26 37 14 20 1007.1 1006.5 0.0
18/06:31pm 16.0 7.7 4.1 45 5.6 W 37 59 20 32 1006.6 1005.9 0.0
18/06:30pm 16.1 7.9 4.8 47 5.4 W 37 56 20 30 1006.7 1006.0 0.0
18/06:14pm 16.2 8.1 5.2 48 5.3 WSW 37 72 20 39 1006.4 1005.7 0.0
18/06:11pm 16.5 9.4 6.3 51 5.1 WSW 33 52 18 28 1006.5 1005.8 0.0
18/06:00pm 16.6 8.8 6.7 52 5.0 W 37 54 20 29 1006.6 1005.9 0.0
18/05:30pm 17.1 11.0 8.3 56 4.6 WSW 30 48 16 26 1006.9 1006.3 0.0
18/05:00pm 16.7 11.1 8.9 60 4.1 W 28 46 15 25 1007.0 1006.4 0.0
18/04:30pm 17.0 10.2 7.9 55 4.7 WSW 33 56 18 30 1007.1 1006.5 0.0
18/04:01pm 16.6 10.1 9.1 61 3.9 WSW 33 54 18 29 1007.2 1006.6 0.0
18/04:00pm 16.6 9.8 9.1 61 3.9 WSW 35 54 19 29 1007.2 1006.6 0.0
18/03:47pm 17.0 11.0 8.7 58 4.3 WSW 30 57 16 31 1007.3 1006.7 0.0
18/03:30pm 17.2 11.0 9.4 60 4.1 W 32 46 17 25 1007.3 1006.7 0.0
18/03:06pm 17.4 10.4 8.5 56 4.6 W 35 54 19 29 1007.4 1006.8 0.0
18/03:00pm 17.6 10.8 9.2 58 4.5 WSW 35 52 19 28 1007.4 1006.8 0.0
18/02:32pm 17.3 10.2 8.2 55 4.7 W 35 65 19 35 1007.5 1006.9 0.0
18/02:30pm 17.8 11.4 9.2 57 4.6 W 33 52 18 28 1007.7 1007.1 0.0
18/02:00pm 17.5 11.7 9.4 59 4.3 WSW 30 46 16 25 1007.8 1007.2 0.0
18/01:57pm 17.2 11.6 8.9 58 4.4 WSW 28 46 15 25 1007.8 1007.2 0.0
18/01:30pm 18.4 13.5 10.0 58 4.5 W 26 35 14 19 1007.8 1007.2 0.0
18/01:00pm 18.2 11.2 8.5 53 5.1 WSW 35 56 19 30 1008.0 1007.4 0.0
18/12:39pm 18.3 12.9 9.4 56 4.7 W 28 52 15 28 1007.9 1007.3 0.0
18/12:30pm 18.3 13.8 9.9 58 4.5 W 24 35 13 19 1007.7 1007.1 0.0
18/12:00pm 17.8 12.9 8.6 55 4.8 W 24 43 13 23 1008.2 1007.6 0.0
18/11:30am 17.3 13.2 8.7 57 4.5 W 20 37 11 20 1008.4 1007.7 0.0
18/11:00am 16.4 12.4 8.4 59 4.1 W 19 35 10 19 1008.9 1008.2 0.0
18/10:30am 15.6 11.4 9.7 68 3.1 WNW 22 30 12 16 1009.1 1008.4 0.0
18/10:00am 15.6 11.3 9.5 67 3.2 WNW 22 32 12 17 1009.2 1008.5 0.0
18/09:30am 14.8 10.8 9.2 69 2.9 WNW 20 28 11 15 1009.5 1008.8 0.0
18/09:00am 14.4 10.2 8.4 67 3.1 WSW 20 28 11 15 1009.8 1009.2 0.0
18/08:30am 14.1 9.1 7.9 66 3.1 W 24 37 13 20 1009.8 1009.2 0.0
18/08:00am 13.4 7.7 8.3 71 2.6 W 28 41 15 22 1009.8 1009.2 0.0
18/07:30am 13.4 9.0 9.1 75 2.2 WNW 22 37 12 20 1009.7 1009.1 0.0
18/07:00am 12.7 9.0 9.3 80 1.8 WNW 19 28 10 15 1009.5 1008.8 0.0
18/06:30am 12.0 7.7 9.2 83 1.4 WNW 22 28 12 15 1009.2 1008.5 0.0
18/06:00am 12.0 7.3 9.2 83 1.4 WNW 24 30 13 16 1009.2 1008.5 0.0
18/05:30am 11.7 8.2 8.9 83 1.4 WNW 17 24 9 13 1009.1 1008.4 0.0
18/05:00am 11.5 7.7 8.9 84 1.3 WNW 19 26 10 14 1009.1 1008.4 0.0
18/04:30am 11.8 8.7 9.0 83 1.4 WNW 15 22 8 12 1009.2 1008.5 0.0
18/04:00am 11.8 8.3 8.8 82 1.5 WNW 17 24 9 13 1009.0 1008.3 0.0
18/03:30am 12.0 8.5 8.8 81 1.6 WNW 17 20 9 11 1009.1 1008.4 0.0
18/03:00am 12.0 7.9 8.8 81 1.6 WNW 20 28 11 15 1009.1 1008.4 0.0
18/02:30am 12.1 8.0 8.8 80 1.7 WNW 20 28 11 15 1009.1 1008.4 0.0
18/02:00am 12.6 8.5 8.5 76 2.1 WNW 20 33 11 18 1009.1 1008.4 0.0
18/01:30am 12.7 8.7 8.4 75 2.2 W 19 30 10 16 1009.2 1008.5 0.0
18/01:00am 12.0 8.9 8.7 80 1.7 WNW 15 20 8 11 1009.4 1008.7 0.0
18/12:30am 12.4 9.2 8.5 77 2.0 W 15 20 8 11 1009.5 1008.8 0.0
18/12:00am 12.9 8.9 8.4 74 2.3 W 19 28 10 15 1009.6 1008.9 0.0
 
Date/Time
EDT
Temp
°C
App
Temp
°C
Dew
Point
°C
Rel
Hum
%
Delta-T
°C
Wind Press
QNH
hPa
Press
MSL
hPa
Rain since
9am
mm
Dir  Spd
km/h
Gust
km/h
Spd
kts
Gust
kts
17/11:30pm 13.3 8.8 8.6 73 2.4 W 22 33 12 18 1009.7 1009.1 0.0
17/11:00pm 13.1 8.2 8.6 74 2.3 WNW 24 33 13 18 1009.8 1009.2 0.0
17/10:30pm 13.1 8.8 9.2 77 2.0 WNW 22 32 12 17 1010.1 1009.5 0.0
17/10:00pm 13.0 9.3 9.4 79 1.9 NW 19 28 10 15 1009.8 1009.2 0.0
17/09:30pm 13.3 9.0 9.5 78 2.0 NW 22 30 12 16 1009.9 1009.3 0.0
17/09:00pm 13.2 9.4 9.8 80 1.8 NW 20 30 11 16 1009.9 1009.3 0.0
17/08:30pm 13.1 9.5 9.9 81 1.7 NW 19 28 10 15 1009.7 1009.1 0.0
17/08:00pm 13.4 10.1 9.6 78 2.0 NW 17 28 9 15 1009.6 1008.9 0.0
17/07:30pm 13.6 9.9 9.3 75 2.2 WNW 19 30 10 16 1009.7 1009.1 0.0
17/07:00pm 13.7 11.3 9.9 78 2.0 NW 13 22 7 12 1009.7 1009.1 0.0
17/06:30pm 13.6 9.9 9.6 77 2.1 NW 19 26 10 14 1009.7 1009.1 0.0
17/06:00pm 13.4 9.8 10.0 80 1.8 NW 19 28 10 15 1009.8 1009.2 0.0
17/05:30pm 12.8 9.1 9.6 81 1.7 NW 19 28 10 15 1010.2 1009.6 0.0
17/05:00pm 12.5 8.9 9.7 83 1.5 NW 19 28 10 15 1010.5 1009.9 0.0
17/04:30pm 12.4 8.4 9.1 80 1.7 NW 20 30 11 16 1010.6 1010.0 0.0
17/04:00pm 12.1 7.1 8.2 77 2.0 NW 24 30 13 16 1010.9 1010.3 0.0

Other formats

Comma delimited format used in spreadsheet applications
http://www.bom.gov.au/fwo/IDT60801/IDT60801.94955.axf

JavaScript Object Notation format (JSON) in row-major order
http://www.bom.gov.au/fwo/IDT60801/IDT60801.94955.json

Data quality

Most of these data are generated automatically and are frequently updated. Quality checks on data are not normally performed. It is possible for incorrect values to appear. Refer to information at About Latest Weather Observations and please check the disclaimer before using these data.